sensor_id;sensor_type;location;lat;lon;timestamp;temperature;humidity
9057;DHT22;4563;54.756;9.400;2023-12-20T00:00:35;8.30;85.10
9057;DHT22;4563;54.756;9.400;2023-12-20T00:03:03;8.30;85.00
9057;DHT22;4563;54.756;9.400;2023-12-20T00:05:31;8.30;85.00
9057;DHT22;4563;54.756;9.400;2023-12-20T00:07:58;8.40;85.10
9057;DHT22;4563;54.756;9.400;2023-12-20T00:10:25;8.30;84.90
9057;DHT22;4563;54.756;9.400;2023-12-20T00:12:52;8.40;85.00
9057;DHT22;4563;54.756;9.400;2023-12-20T00:15:19;8.40;85.00
9057;DHT22;4563;54.756;9.400;2023-12-20T00:17:45;8.40;85.00
9057;DHT22;4563;54.756;9.400;2023-12-20T00:20:13;8.40;85.10
9057;DHT22;4563;54.756;9.400;2023-12-20T00:22:41;8.40;85.00
9057;DHT22;4563;54.756;9.400;2023-12-20T00:25:08;8.40;85.60
9057;DHT22;4563;54.756;9.400;2023-12-20T00:27:34;8.40;84.90
9057;DHT22;4563;54.756;9.400;2023-12-20T00:30:01;8.40;84.90
9057;DHT22;4563;54.756;9.400;2023-12-20T00:32:28;8.40;84.90
9057;DHT22;4563;54.756;9.400;2023-12-20T00:34:55;8.40;84.80
9057;DHT22;4563;54.756;9.400;2023-12-20T00:37:22;8.40;84.80
9057;DHT22;4563;54.756;9.400;2023-12-20T00:39:50;8.50;84.90
9057;DHT22;4563;54.756;9.400;2023-12-20T00:42:17;8.40;84.80
9057;DHT22;4563;54.756;9.400;2023-12-20T00:44:44;8.40;84.80
9057;DHT22;4563;54.756;9.400;2023-12-20T00:47:11;8.40;84.80
9057;DHT22;4563;54.756;9.400;2023-12-20T00:49:38;8.40;84.80
9057;DHT22;4563;54.756;9.400;2023-12-20T00:52:05;8.50;84.90
9057;DHT22;4563;54.756;9.400;2023-12-20T00:54:32;8.50;84.90
9057;DHT22;4563;54.756;9.400;2023-12-20T00:57:01;8.50;84.90
9057;DHT22;4563;54.756;9.400;2023-12-20T00:59:27;8.40;84.80
9057;DHT22;4563;54.756;9.400;2023-12-20T01:01:54;8.50;84.80
9057;DHT22;4563;54.756;9.400;2023-12-20T01:04:21;8.50;84.80
9057;DHT22;4563;54.756;9.400;2023-12-20T01:06:48;8.40;84.70
9057;DHT22;4563;54.756;9.400;2023-12-20T01:09:14;8.50;84.80
9057;DHT22;4563;54.756;9.400;2023-12-20T01:11:41;8.50;84.80
9057;DHT22;4563;54.756;9.400;2023-12-20T01:14:09;8.50;84.80
9057;DHT22;4563;54.756;9.400;2023-12-20T01:16:36;8.50;84.80
9057;DHT22;4563;54.756;9.400;2023-12-20T01:19:03;8.50;84.70
9057;DHT22;4563;54.756;9.400;2023-12-20T01:21:30;8.50;84.80
9057;DHT22;4563;54.756;9.400;2023-12-20T01:23:57;8.50;84.80
9057;DHT22;4563;54.756;9.400;2023-12-20T01:26:23;8.50;84.70
9057;DHT22;4563;54.756;9.400;2023-12-20T01:28:50;8.40;84.60
9057;DHT22;4563;54.756;9.400;2023-12-20T01:31:18;8.50;84.70
9057;DHT22;4563;54.756;9.400;2023-12-20T01:33:45;8.40;84.60
9057;DHT22;4563;54.756;9.400;2023-12-20T01:36:12;8.40;84.60
9057;DHT22;4563;54.756;9.400;2023-12-20T01:38:39;8.50;84.70
9057;DHT22;4563;54.756;9.400;2023-12-20T01:41:06;8.50;84.80
9057;DHT22;4563;54.756;9.400;2023-12-20T01:43:32;8.50;84.70
9057;DHT22;4563;54.756;9.400;2023-12-20T01:45:59;8.40;84.70
9057;DHT22;4563;54.756;9.400;2023-12-20T01:48:28;8.50;84.80
9057;DHT22;4563;54.756;9.400;2023-12-20T01:50:57;8.50;84.80
9057;DHT22;4563;54.756;9.400;2023-12-20T01:53:25;8.40;84.70
9057;DHT22;4563;54.756;9.400;2023-12-20T01:55:55;8.50;84.80
9057;DHT22;4563;54.756;9.400;2023-12-20T01:58:23;8.50;84.80
9057;DHT22;4563;54.756;9.400;2023-12-20T02:00:50;8.50;84.80
9057;DHT22;4563;54.756;9.400;2023-12-20T02:03:18;8.50;84.80
9057;DHT22;4563;54.756;9.400;2023-12-20T02:05:45;8.50;84.80
9057;DHT22;4563;54.756;9.400;2023-12-20T02:08:13;8.50;84.80
9057;DHT22;4563;54.756;9.400;2023-12-20T02:10:40;8.50;84.80
9057;DHT22;4563;54.756;9.400;2023-12-20T02:13:07;8.50;84.80
9057;DHT22;4563;54.756;9.400;2023-12-20T02:15:34;8.50;84.80
9057;DHT22;4563;54.756;9.400;2023-12-20T02:18:02;8.50;84.80
9057;DHT22;4563;54.756;9.400;2023-12-20T02:20:29;8.50;84.80
9057;DHT22;4563;54.756;9.400;2023-12-20T02:22:57;8.40;84.70
9057;DHT22;4563;54.756;9.400;2023-12-20T02:25:24;8.50;84.80
9057;DHT22;4563;54.756;9.400;2023-12-20T02:27:52;8.40;84.60
9057;DHT22;4563;54.756;9.400;2023-12-20T02:30:18;8.50;85.50
9057;DHT22;4563;54.756;9.400;2023-12-20T02:32:45;8.40;84.70
9057;DHT22;4563;54.756;9.400;2023-12-20T02:35:12;8.40;84.60
9057;DHT22;4563;54.756;9.400;2023-12-20T02:37:39;8.40;84.60
9057;DHT22;4563;54.756;9.400;2023-12-20T02:40:08;8.40;84.60
9057;DHT22;4563;54.756;9.400;2023-12-20T02:42:36;8.40;84.70
9057;DHT22;4563;54.756;9.400;2023-12-20T02:45:03;8.40;84.70
9057;DHT22;4563;54.756;9.400;2023-12-20T02:47:30;8.40;84.60
9057;DHT22;4563;54.756;9.400;2023-12-20T02:49:57;8.40;84.60
9057;DHT22;4563;54.756;9.400;2023-12-20T02:52:24;8.40;84.60
9057;DHT22;4563;54.756;9.400;2023-12-20T02:54:53;8.50;84.80
9057;DHT22;4563;54.756;9.400;2023-12-20T02:57:21;8.40;84.60
9057;DHT22;4563;54.756;9.400;2023-12-20T02:59:48;8.40;84.60
9057;DHT22;4563;54.756;9.400;2023-12-20T03:02:15;8.50;84.70
9057;DHT22;4563;54.756;9.400;2023-12-20T03:04:42;8.50;84.70
9057;DHT22;4563;54.756;9.400;2023-12-20T03:07:09;8.50;84.70
9057;DHT22;4563;54.756;9.400;2023-12-20T03:09:37;8.50;84.70
9057;DHT22;4563;54.756;9.400;2023-12-20T03:12:04;8.50;84.80
9057;DHT22;4563;54.756;9.400;2023-12-20T03:14:32;8.50;84.80
9057;DHT22;4563;54.756;9.400;2023-12-20T03:16:59;8.50;84.70
9057;DHT22;4563;54.756;9.400;2023-12-20T03:19:26;8.50;84.70
9057;DHT22;4563;54.756;9.400;2023-12-20T03:21:54;8.50;84.80
9057;DHT22;4563;54.756;9.400;2023-12-20T03:24:21;8.50;84.70
9057;DHT22;4563;54.756;9.400;2023-12-20T03:26:48;8.50;84.70
9057;DHT22;4563;54.756;9.400;2023-12-20T03:29:15;8.50;84.70
9057;DHT22;4563;54.756;9.400;2023-12-20T03:31:43;8.50;84.70
9057;DHT22;4563;54.756;9.400;2023-12-20T03:34:10;8.50;84.70
9057;DHT22;4563;54.756;9.400;2023-12-20T03:36:36;8.50;84.80
9057;DHT22;4563;54.756;9.400;2023-12-20T03:39:04;8.50;84.70
9057;DHT22;4563;54.756;9.400;2023-12-20T03:41:31;8.50;84.60
9057;DHT22;4563;54.756;9.400;2023-12-20T03:43:57;8.50;84.70
9057;DHT22;4563;54.756;9.400;2023-12-20T03:46:24;8.60;84.70
9057;DHT22;4563;54.756;9.400;2023-12-20T03:48:52;8.60;84.70
9057;DHT22;4563;54.756;9.400;2023-12-20T03:51:19;8.50;84.60
9057;DHT22;4563;54.756;9.400;2023-12-20T03:53:46;8.60;84.70
9057;DHT22;4563;54.756;9.400;2023-12-20T03:56:13;8.60;84.70
9057;DHT22;4563;54.756;9.400;2023-12-20T03:58:40;8.60;84.70
9057;DHT22;4563;54.756;9.400;2023-12-20T04:01:09;8.60;84.70
9057;DHT22;4563;54.756;9.400;2023-12-20T04:03:38;8.60;84.70
9057;DHT22;4563;54.756;9.400;2023-12-20T04:06:07;8.60;84.80
9057;DHT22;4563;54.756;9.400;2023-12-20T04:08:34;8.60;84.70
9057;DHT22;4563;54.756;9.400;2023-12-20T04:11:01;8.60;84.80
9057;DHT22;4563;54.756;9.400;2023-12-20T04:13:27;8.60;84.70
9057;DHT22;4563;54.756;9.400;2023-12-20T04:15:54;8.60;84.70
9057;DHT22;4563;54.756;9.400;2023-12-20T04:18:21;8.60;84.70
9057;DHT22;4563;54.756;9.400;2023-12-20T04:20:48;8.60;84.60
9057;DHT22;4563;54.756;9.400;2023-12-20T04:23:16;8.60;84.70
9057;DHT22;4563;54.756;9.400;2023-12-20T04:25:43;8.60;84.70
9057;DHT22;4563;54.756;9.400;2023-12-20T04:28:09;8.60;84.70
9057;DHT22;4563;54.756;9.400;2023-12-20T04:30:36;8.60;84.70
9057;DHT22;4563;54.756;9.400;2023-12-20T04:33:03;8.60;84.70
9057;DHT22;4563;54.756;9.400;2023-12-20T04:35:30;8.60;84.70
9057;DHT22;4563;54.756;9.400;2023-12-20T04:37:57;8.60;84.60
9057;DHT22;4563;54.756;9.400;2023-12-20T04:40:25;8.60;84.60
9057;DHT22;4563;54.756;9.400;2023-12-20T04:42:52;8.60;84.60
9057;DHT22;4563;54.756;9.400;2023-12-20T04:45:19;8.60;84.50
9057;DHT22;4563;54.756;9.400;2023-12-20T04:47:45;8.60;84.60
9057;DHT22;4563;54.756;9.400;2023-12-20T04:50:13;8.60;84.60
9057;DHT22;4563;54.756;9.400;2023-12-20T04:52:40;8.60;84.60
9057;DHT22;4563;54.756;9.400;2023-12-20T04:55:08;8.60;84.60
9057;DHT22;4563;54.756;9.400;2023-12-20T04:57:36;8.60;84.60
9057;DHT22;4563;54.756;9.400;2023-12-20T05:00:04;8.70;85.40
9057;DHT22;4563;54.756;9.400;2023-12-20T05:02:31;8.60;84.60
9057;DHT22;4563;54.756;9.400;2023-12-20T05:04:58;8.60;84.60
9057;DHT22;4563;54.756;9.400;2023-12-20T05:07:24;8.60;84.60
9057;DHT22;4563;54.756;9.400;2023-12-20T05:09:51;8.60;84.60
9057;DHT22;4563;54.756;9.400;2023-12-20T05:12:19;8.60;84.60
9057;DHT22;4563;54.756;9.400;2023-12-20T05:14:47;8.60;85.30
9057;DHT22;4563;54.756;9.400;2023-12-20T05:17:14;8.60;84.60
9057;DHT22;4563;54.756;9.400;2023-12-20T05:19:40;8.70;84.60
9057;DHT22;4563;54.756;9.400;2023-12-20T05:22:07;8.60;84.60
9057;DHT22;4563;54.756;9.400;2023-12-20T05:24:34;8.60;85.30
9057;DHT22;4563;54.756;9.400;2023-12-20T05:27:01;8.60;84.50
9057;DHT22;4563;54.756;9.400;2023-12-20T05:29:27;8.60;84.60
9057;DHT22;4563;54.756;9.400;2023-12-20T05:31:57;8.70;84.60
9057;DHT22;4563;54.756;9.400;2023-12-20T05:34:24;8.60;84.60
9057;DHT22;4563;54.756;9.400;2023-12-20T05:36:51;8.60;84.60
9057;DHT22;4563;54.756;9.400;2023-12-20T05:39:18;8.70;84.70
9057;DHT22;4563;54.756;9.400;2023-12-20T05:41:44;8.60;84.60
9057;DHT22;4563;54.756;9.400;2023-12-20T05:44:11;8.60;84.50
9057;DHT22;4563;54.756;9.400;2023-12-20T05:46:38;8.60;84.60
9057;DHT22;4563;54.756;9.400;2023-12-20T05:49:07;8.60;84.90
9057;DHT22;4563;54.756;9.400;2023-12-20T05:51:33;8.60;84.50
9057;DHT22;4563;54.756;9.400;2023-12-20T05:54:00;8.60;84.60
9057;DHT22;4563;54.756;9.400;2023-12-20T05:56:27;8.60;84.60
9057;DHT22;4563;54.756;9.400;2023-12-20T05:58:54;8.60;84.60
9057;DHT22;4563;54.756;9.400;2023-12-20T06:01:20;8.60;84.60
9057;DHT22;4563;54.756;9.400;2023-12-20T06:03:47;8.60;84.50
9057;DHT22;4563;54.756;9.400;2023-12-20T06:06:15;8.60;84.60
9057;DHT22;4563;54.756;9.400;2023-12-20T06:08:43;8.60;84.60
9057;DHT22;4563;54.756;9.400;2023-12-20T06:11:10;8.60;84.60
9057;DHT22;4563;54.756;9.400;2023-12-20T06:13:37;8.60;84.60
9057;DHT22;4563;54.756;9.400;2023-12-20T06:16:05;8.60;84.60
9057;DHT22;4563;54.756;9.400;2023-12-20T06:18:32;8.60;84.60
9057;DHT22;4563;54.756;9.400;2023-12-20T06:20:59;8.60;84.60
9057;DHT22;4563;54.756;9.400;2023-12-20T06:23:27;8.60;84.60
9057;DHT22;4563;54.756;9.400;2023-12-20T06:25:54;8.60;84.60
9057;DHT22;4563;54.756;9.400;2023-12-20T06:28:21;8.60;84.60
9057;DHT22;4563;54.756;9.400;2023-12-20T06:30:48;8.60;84.60
9057;DHT22;4563;54.756;9.400;2023-12-20T06:33:15;8.60;84.50
9057;DHT22;4563;54.756;9.400;2023-12-20T06:35:44;8.60;84.50
9057;DHT22;4563;54.756;9.400;2023-12-20T06:38:11;8.60;84.50
9057;DHT22;4563;54.756;9.400;2023-12-20T06:40:39;8.60;84.60
9057;DHT22;4563;54.756;9.400;2023-12-20T06:43:05;8.50;84.40
9057;DHT22;4563;54.756;9.400;2023-12-20T06:45:32;8.50;84.40
9057;DHT22;4563;54.756;9.400;2023-12-20T06:48:00;8.50;84.40
9057;DHT22;4563;54.756;9.400;2023-12-20T06:50:27;8.50;84.40
9057;DHT22;4563;54.756;9.400;2023-12-20T06:52:54;8.50;84.40
9057;DHT22;4563;54.756;9.400;2023-12-20T06:55:20;8.50;84.40
9057;DHT22;4563;54.756;9.400;2023-12-20T06:57:49;8.50;84.40
9057;DHT22;4563;54.756;9.400;2023-12-20T07:00:16;8.50;84.40
9057;DHT22;4563;54.756;9.400;2023-12-20T07:02:45;8.50;84.40
9057;DHT22;4563;54.756;9.400;2023-12-20T07:05:15;8.50;84.40
9057;DHT22;4563;54.756;9.400;2023-12-20T07:07:42;8.50;84.40
9057;DHT22;4563;54.756;9.400;2023-12-20T07:10:09;8.50;84.40
9057;DHT22;4563;54.756;9.400;2023-12-20T07:12:36;8.50;84.40
9057;DHT22;4563;54.756;9.400;2023-12-20T07:15:05;8.50;84.40
9057;DHT22;4563;54.756;9.400;2023-12-20T07:17:32;8.50;84.40
9057;DHT22;4563;54.756;9.400;2023-12-20T07:19:59;8.50;84.40
9057;DHT22;4563;54.756;9.400;2023-12-20T07:22:29;8.50;84.40
9057;DHT22;4563;54.756;9.400;2023-12-20T07:24:57;8.50;84.30
9057;DHT22;4563;54.756;9.400;2023-12-20T07:27:24;8.50;84.30
9057;DHT22;4563;54.756;9.400;2023-12-20T07:29:51;8.50;84.30
9057;DHT22;4563;54.756;9.400;2023-12-20T07:32:20;8.40;84.30
9057;DHT22;4563;54.756;9.400;2023-12-20T07:34:47;8.50;84.30
9057;DHT22;4563;54.756;9.400;2023-12-20T07:37:14;8.40;84.30
9057;DHT22;4563;54.756;9.400;2023-12-20T07:39:41;8.50;84.30
9057;DHT22;4563;54.756;9.400;2023-12-20T07:42:08;8.50;84.30
9057;DHT22;4563;54.756;9.400;2023-12-20T07:44:35;8.40;84.30
9057;DHT22;4563;54.756;9.400;2023-12-20T07:47:02;8.40;84.30
9057;DHT22;4563;54.756;9.400;2023-12-20T07:49:31;8.40;84.30
9057;DHT22;4563;54.756;9.400;2023-12-20T07:51:58;8.50;84.40
9057;DHT22;4563;54.756;9.400;2023-12-20T07:54:25;8.40;84.30
9057;DHT22;4563;54.756;9.400;2023-12-20T07:56:51;8.50;84.40
9057;DHT22;4563;54.756;9.400;2023-12-20T07:59:17;8.40;85.00
9057;DHT22;4563;54.756;9.400;2023-12-20T08:01:44;8.40;84.40
9057;DHT22;4563;54.756;9.400;2023-12-20T08:04:11;8.40;84.30
9057;DHT22;4563;54.756;9.400;2023-12-20T08:06:39;8.40;84.30
9057;DHT22;4563;54.756;9.400;2023-12-20T08:09:06;8.40;84.40
9057;DHT22;4563;54.756;9.400;2023-12-20T08:11:33;8.30;84.30
9057;DHT22;4563;54.756;9.400;2023-12-20T08:13:59;8.30;84.40
9057;DHT22;4563;54.756;9.400;2023-12-20T08:16:26;8.30;84.40
9057;DHT22;4563;54.756;9.400;2023-12-20T08:18:53;8.30;84.40
9057;DHT22;4563;54.756;9.400;2023-12-20T08:21:20;8.30;84.40
9057;DHT22;4563;54.756;9.400;2023-12-20T08:23:49;8.30;84.40
9057;DHT22;4563;54.756;9.400;2023-12-20T08:26:19;8.30;84.50
9057;DHT22;4563;54.756;9.400;2023-12-20T08:28:47;8.20;84.40
9057;DHT22;4563;54.756;9.400;2023-12-20T08:31:14;8.20;84.40
9057;DHT22;4563;54.756;9.400;2023-12-20T08:36:09;8.20;84.40
9057;DHT22;4563;54.756;9.400;2023-12-20T08:38:36;8.20;85.20
9057;DHT22;4563;54.756;9.400;2023-12-20T08:41:04;8.20;84.40
9057;DHT22;4563;54.756;9.400;2023-12-20T08:43:31;8.20;84.40
9057;DHT22;4563;54.756;9.400;2023-12-20T08:45:58;8.10;84.30
9057;DHT22;4563;54.756;9.400;2023-12-20T08:48:25;8.10;84.30
9057;DHT22;4563;54.756;9.400;2023-12-20T08:50:52;8.10;84.30
9057;DHT22;4563;54.756;9.400;2023-12-20T08:53:18;8.10;84.30
9057;DHT22;4563;54.756;9.400;2023-12-20T08:55:46;8.10;84.30
9057;DHT22;4563;54.756;9.400;2023-12-20T08:58:14;8.00;84.20
9057;DHT22;4563;54.756;9.400;2023-12-20T09:00:42;8.00;84.30
9057;DHT22;4563;54.756;9.400;2023-12-20T09:03:09;8.00;84.20
9057;DHT22;4563;54.756;9.400;2023-12-20T09:05:36;8.00;84.30
9057;DHT22;4563;54.756;9.400;2023-12-20T09:08:03;8.00;84.20
9057;DHT22;4563;54.756;9.400;2023-12-20T09:10:30;8.00;84.30
9057;DHT22;4563;54.756;9.400;2023-12-20T09:12:57;7.90;84.20
9057;DHT22;4563;54.756;9.400;2023-12-20T09:15:26;7.90;84.20
9057;DHT22;4563;54.756;9.400;2023-12-20T09:17:53;7.90;84.20
9057;DHT22;4563;54.756;9.400;2023-12-20T09:20:20;7.90;84.20
9057;DHT22;4563;54.756;9.400;2023-12-20T09:22:49;7.90;84.20
9057;DHT22;4563;54.756;9.400;2023-12-20T09:25:16;7.90;84.30
9057;DHT22;4563;54.756;9.400;2023-12-20T09:27:43;7.90;84.30
9057;DHT22;4563;54.756;9.400;2023-12-20T09:30:10;7.90;84.30
9057;DHT22;4563;54.756;9.400;2023-12-20T09:32:38;7.90;84.30
9057;DHT22;4563;54.756;9.400;2023-12-20T09:35:05;7.90;84.30
9057;DHT22;4563;54.756;9.400;2023-12-20T09:37:34;7.90;84.40
9057;DHT22;4563;54.756;9.400;2023-12-20T09:40:01;7.90;84.40
9057;DHT22;4563;54.756;9.400;2023-12-20T09:42:44;7.90;84.30
9057;DHT22;4563;54.756;9.400;2023-12-20T09:45:15;7.90;84.30
9057;DHT22;4563;54.756;9.400;2023-12-20T09:47:43;7.90;84.30
9057;DHT22;4563;54.756;9.400;2023-12-20T09:50:11;7.90;84.30
9057;DHT22;4563;54.756;9.400;2023-12-20T09:52:39;7.90;84.30
9057;DHT22;4563;54.756;9.400;2023-12-20T09:55:07;7.90;84.30
9057;DHT22;4563;54.756;9.400;2023-12-20T09:57:35;7.90;84.30
9057;DHT22;4563;54.756;9.400;2023-12-20T10:00:02;7.90;84.30
9057;DHT22;4563;54.756;9.400;2023-12-20T10:02:30;7.90;84.40
9057;DHT22;4563;54.756;9.400;2023-12-20T10:04:59;7.80;84.30
9057;DHT22;4563;54.756;9.400;2023-12-20T10:07:27;7.80;84.30
9057;DHT22;4563;54.756;9.400;2023-12-20T10:09:54;7.90;84.40
9057;DHT22;4563;54.756;9.400;2023-12-20T10:12:22;7.80;84.30
9057;DHT22;4563;54.756;9.400;2023-12-20T10:14:49;7.80;84.30
9057;DHT22;4563;54.756;9.400;2023-12-20T10:17:16;7.80;84.20
9057;DHT22;4563;54.756;9.400;2023-12-20T10:19:43;7.80;84.30
9057;DHT22;4563;54.756;9.400;2023-12-20T10:22:12;7.80;84.30
9057;DHT22;4563;54.756;9.400;2023-12-20T10:24:40;7.90;84.40
9057;DHT22;4563;54.756;9.400;2023-12-20T10:27:08;7.80;84.30
9057;DHT22;4563;54.756;9.400;2023-12-20T10:29:35;7.80;84.30
9057;DHT22;4563;54.756;9.400;2023-12-20T10:32:21;7.80;84.30
9057;DHT22;4563;54.756;9.400;2023-12-20T10:34:49;7.90;84.50
9057;DHT22;4563;54.756;9.400;2023-12-20T10:37:17;7.90;84.40
9057;DHT22;4563;54.756;9.400;2023-12-20T10:39:44;7.90;84.30
9057;DHT22;4563;54.756;9.400;2023-12-20T10:42:13;7.90;84.30
9057;DHT22;4563;54.756;9.400;2023-12-20T10:44:41;7.90;84.30
9057;DHT22;4563;54.756;9.400;2023-12-20T10:47:09;7.90;84.30
9057;DHT22;4563;54.756;9.400;2023-12-20T10:49:39;7.90;84.30
9057;DHT22;4563;54.756;9.400;2023-12-20T10:52:08;7.90;84.30
9057;DHT22;4563;54.756;9.400;2023-12-20T10:54:37;8.00;84.30
9057;DHT22;4563;54.756;9.400;2023-12-20T10:57:05;8.00;84.30
9057;DHT22;4563;54.756;9.400;2023-12-20T10:59:33;8.00;84.30
9057;DHT22;4563;54.756;9.400;2023-12-20T11:02:03;8.00;84.20
9057;DHT22;4563;54.756;9.400;2023-12-20T11:04:36;8.00;84.30
9057;DHT22;4563;54.756;9.400;2023-12-20T11:07:13;8.00;84.20
9057;DHT22;4563;54.756;9.400;2023-12-20T11:09:52;8.00;84.20
9057;DHT22;4563;54.756;9.400;2023-12-20T11:12:32;8.00;84.30
9057;DHT22;4563;54.756;9.400;2023-12-20T11:15:01;8.00;84.20
9057;DHT22;4563;54.756;9.400;2023-12-20T11:17:31;8.00;84.20
9057;DHT22;4563;54.756;9.400;2023-12-20T11:20:08;8.00;84.20
9057;DHT22;4563;54.756;9.400;2023-12-20T11:22:37;8.00;84.10
9057;DHT22;4563;54.756;9.400;2023-12-20T11:25:10;8.00;84.10
9057;DHT22;4563;54.756;9.400;2023-12-20T11:27:40;8.00;84.20
9057;DHT22;4563;54.756;9.400;2023-12-20T11:30:08;8.00;84.10
9057;DHT22;4563;54.756;9.400;2023-12-20T11:32:36;8.00;84.10
9057;DHT22;4563;54.756;9.400;2023-12-20T11:35:18;8.00;84.00
9057;DHT22;4563;54.756;9.400;2023-12-20T11:37:45;8.10;84.10
9057;DHT22;4563;54.756;9.400;2023-12-20T11:40:16;8.10;84.10
9057;DHT22;4563;54.756;9.400;2023-12-20T11:42:44;8.00;84.00
9057;DHT22;4563;54.756;9.400;2023-12-20T11:45:11;8.00;84.00
9057;DHT22;4563;54.756;9.400;2023-12-20T11:47:41;8.00;83.80
9057;DHT22;4563;54.756;9.400;2023-12-20T11:50:09;8.00;83.80
9057;DHT22;4563;54.756;9.400;2023-12-20T11:52:35;8.00;83.70
9057;DHT22;4563;54.756;9.400;2023-12-20T11:55:03;8.00;83.70
9057;DHT22;4563;54.756;9.400;2023-12-20T11:57:31;8.00;83.60
9057;DHT22;4563;54.756;9.400;2023-12-20T11:59:58;8.00;83.60
9057;DHT22;4563;54.756;9.400;2023-12-20T12:02:25;8.00;83.60
9057;DHT22;4563;54.756;9.400;2023-12-20T12:04:52;8.00;83.50
9057;DHT22;4563;54.756;9.400;2023-12-20T12:07:21;8.00;83.40
9057;DHT22;4563;54.756;9.400;2023-12-20T12:09:48;8.00;83.40
9057;DHT22;4563;54.756;9.400;2023-12-20T12:12:16;8.00;83.40
9057;DHT22;4563;54.756;9.400;2023-12-20T12:14:44;8.00;83.30
9057;DHT22;4563;54.756;9.400;2023-12-20T12:17:11;8.00;83.30
9057;DHT22;4563;54.756;9.400;2023-12-20T12:19:39;8.00;83.30
9057;DHT22;4563;54.756;9.400;2023-12-20T12:22:06;8.00;83.30
9057;DHT22;4563;54.756;9.400;2023-12-20T12:24:35;8.00;83.20
9057;DHT22;4563;54.756;9.400;2023-12-20T12:27:03;8.00;83.30
9057;DHT22;4563;54.756;9.400;2023-12-20T12:29:30;8.00;83.20
9057;DHT22;4563;54.756;9.400;2023-12-20T12:31:58;8.00;83.10
9057;DHT22;4563;54.756;9.400;2023-12-20T12:34:27;8.10;83.10
9057;DHT22;4563;54.756;9.400;2023-12-20T12:36:54;8.10;83.20
9057;DHT22;4563;54.756;9.400;2023-12-20T12:39:23;8.10;83.20
9057;DHT22;4563;54.756;9.400;2023-12-20T12:41:51;8.10;83.10
9057;DHT22;4563;54.756;9.400;2023-12-20T12:44:18;8.10;83.00
9057;DHT22;4563;54.756;9.400;2023-12-20T12:46:45;8.10;82.90
9057;DHT22;4563;54.756;9.400;2023-12-20T12:49:13;8.10;83.00
9057;DHT22;4563;54.756;9.400;2023-12-20T12:51:40;8.10;82.90
9057;DHT22;4563;54.756;9.400;2023-12-20T12:54:07;8.10;82.90
9057;DHT22;4563;54.756;9.400;2023-12-20T12:56:35;8.10;82.70
9057;DHT22;4563;54.756;9.400;2023-12-20T12:59:02;8.20;82.80
9057;DHT22;4563;54.756;9.400;2023-12-20T13:01:31;8.20;82.70
9057;DHT22;4563;54.756;9.400;2023-12-20T13:03:58;8.10;82.70
9057;DHT22;4563;54.756;9.400;2023-12-20T13:06:28;8.20;82.70
9057;DHT22;4563;54.756;9.400;2023-12-20T13:08:55;8.20;82.70
9057;DHT22;4563;54.756;9.400;2023-12-20T13:11:21;8.10;82.60
9057;DHT22;4563;54.756;9.400;2023-12-20T13:13:48;8.20;82.70
9057;DHT22;4563;54.756;9.400;2023-12-20T13:16:15;8.20;82.70
9057;DHT22;4563;54.756;9.400;2023-12-20T13:18:42;8.20;82.70
9057;DHT22;4563;54.756;9.400;2023-12-20T13:21:09;8.20;82.70
9057;DHT22;4563;54.756;9.400;2023-12-20T13:23:37;8.20;82.60
9057;DHT22;4563;54.756;9.400;2023-12-20T13:26:04;8.20;83.40
9057;DHT22;4563;54.756;9.400;2023-12-20T13:28:31;8.20;82.50
9057;DHT22;4563;54.756;9.400;2023-12-20T13:30:58;8.20;82.50
9057;DHT22;4563;54.756;9.400;2023-12-20T13:33:25;8.20;82.50
9057;DHT22;4563;54.756;9.400;2023-12-20T13:35:52;8.20;82.50
9057;DHT22;4563;54.756;9.400;2023-12-20T13:38:19;8.10;82.40
9057;DHT22;4563;54.756;9.400;2023-12-20T13:40:47;8.10;82.30
9057;DHT22;4563;54.756;9.400;2023-12-20T13:43:13;8.10;82.30
9057;DHT22;4563;54.756;9.400;2023-12-20T13:45:42;8.10;82.40
9057;DHT22;4563;54.756;9.400;2023-12-20T13:48:09;8.10;82.40
9057;DHT22;4563;54.756;9.400;2023-12-20T13:50:36;8.10;82.40
9057;DHT22;4563;54.756;9.400;2023-12-20T13:53:03;8.10;82.30
9057;DHT22;4563;54.756;9.400;2023-12-20T13:55:30;8.10;82.40
9057;DHT22;4563;54.756;9.400;2023-12-20T13:57:58;8.10;82.40
9057;DHT22;4563;54.756;9.400;2023-12-20T14:00:25;8.10;82.30
9057;DHT22;4563;54.756;9.400;2023-12-20T14:02:52;8.10;82.30
9057;DHT22;4563;54.756;9.400;2023-12-20T14:05:19;8.10;82.40
9057;DHT22;4563;54.756;9.400;2023-12-20T14:07:46;8.10;82.40
9057;DHT22;4563;54.756;9.400;2023-12-20T14:10:13;8.10;82.40
9057;DHT22;4563;54.756;9.400;2023-12-20T14:12:40;8.10;82.40
9057;DHT22;4563;54.756;9.400;2023-12-20T14:15:09;8.10;82.40
9057;DHT22;4563;54.756;9.400;2023-12-20T14:17:36;8.00;82.30
9057;DHT22;4563;54.756;9.400;2023-12-20T14:20:05;8.10;82.40
9057;DHT22;4563;54.756;9.400;2023-12-20T14:22:33;8.00;82.30
9057;DHT22;4563;54.756;9.400;2023-12-20T14:25:00;8.00;82.30
9057;DHT22;4563;54.756;9.400;2023-12-20T14:27:27;8.00;82.30
9057;DHT22;4563;54.756;9.400;2023-12-20T14:29:54;8.00;82.30
9057;DHT22;4563;54.756;9.400;2023-12-20T14:32:22;8.00;82.30
9057;DHT22;4563;54.756;9.400;2023-12-20T14:34:49;7.90;82.20
9057;DHT22;4563;54.756;9.400;2023-12-20T14:37:16;7.90;82.30
9057;DHT22;4563;54.756;9.400;2023-12-20T14:39:43;7.90;82.30
9057;DHT22;4563;54.756;9.400;2023-12-20T14:42:10;7.90;82.30
9057;DHT22;4563;54.756;9.400;2023-12-20T14:44:39;7.80;82.20
9057;DHT22;4563;54.756;9.400;2023-12-20T14:47:06;7.80;82.20
9057;DHT22;4563;54.756;9.400;2023-12-20T14:49:34;7.80;82.20
9057;DHT22;4563;54.756;9.400;2023-12-20T14:52:03;7.80;82.20
9057;DHT22;4563;54.756;9.400;2023-12-20T14:54:30;7.80;82.30
9057;DHT22;4563;54.756;9.400;2023-12-20T14:56:57;7.80;82.30
9057;DHT22;4563;54.756;9.400;2023-12-20T14:59:24;7.80;82.30
9057;DHT22;4563;54.756;9.400;2023-12-20T15:01:51;7.80;82.30
9057;DHT22;4563;54.756;9.400;2023-12-20T15:04:18;7.80;82.30
9057;DHT22;4563;54.756;9.400;2023-12-20T15:06:52;7.80;82.30
9057;DHT22;4563;54.756;9.400;2023-12-20T15:09:19;7.80;82.30
9057;DHT22;4563;54.756;9.400;2023-12-20T15:11:46;7.80;82.30
9057;DHT22;4563;54.756;9.400;2023-12-20T15:14:13;7.80;82.30
9057;DHT22;4563;54.756;9.400;2023-12-20T15:16:43;7.80;82.40
9057;DHT22;4563;54.756;9.400;2023-12-20T15:19:11;7.80;82.30
9057;DHT22;4563;54.756;9.400;2023-12-20T15:21:38;7.80;82.30
9057;DHT22;4563;54.756;9.400;2023-12-20T15:24:09;7.80;82.40
9057;DHT22;4563;54.756;9.400;2023-12-20T15:26:40;7.80;82.30
9057;DHT22;4563;54.756;9.400;2023-12-20T15:29:07;7.80;82.30
9057;DHT22;4563;54.756;9.400;2023-12-20T15:31:35;7.80;82.30
9057;DHT22;4563;54.756;9.400;2023-12-20T15:34:02;7.80;82.30
9057;DHT22;4563;54.756;9.400;2023-12-20T15:36:29;7.70;82.30
9057;DHT22;4563;54.756;9.400;2023-12-20T15:38:57;7.80;82.40
9057;DHT22;4563;54.756;9.400;2023-12-20T15:41:25;7.80;82.40
9057;DHT22;4563;54.756;9.400;2023-12-20T15:43:52;7.70;82.20
9057;DHT22;4563;54.756;9.400;2023-12-20T15:46:19;7.70;82.20
9057;DHT22;4563;54.756;9.400;2023-12-20T15:48:45;7.70;82.20
9057;DHT22;4563;54.756;9.400;2023-12-20T15:51:13;7.70;82.20
9057;DHT22;4563;54.756;9.400;2023-12-20T15:53:40;7.70;82.20
9057;DHT22;4563;54.756;9.400;2023-12-20T15:56:07;7.70;82.20
9057;DHT22;4563;54.756;9.400;2023-12-20T15:58:35;7.70;82.20
9057;DHT22;4563;54.756;9.400;2023-12-20T16:01:02;7.70;82.20
9057;DHT22;4563;54.756;9.400;2023-12-20T16:03:30;7.70;82.20
9057;DHT22;4563;54.756;9.400;2023-12-20T16:05:56;7.70;82.20
9057;DHT22;4563;54.756;9.400;2023-12-20T16:08:24;7.70;82.20
9057;DHT22;4563;54.756;9.400;2023-12-20T16:10:50;7.70;82.20
9057;DHT22;4563;54.756;9.400;2023-12-20T16:13:17;7.70;82.20
9057;DHT22;4563;54.756;9.400;2023-12-20T16:15:47;7.70;82.20
9057;DHT22;4563;54.756;9.400;2023-12-20T16:18:13;7.70;82.20
9057;DHT22;4563;54.756;9.400;2023-12-20T16:20:40;7.70;82.20